Time;durP1;ratioP1;P1;durP2;ratioP2;P2;SDS_P1;SDS_P2;PMS_P1;PMS_P2;Temp;Humidity;BMP_temperature;BMP_pressure;BME280_temperature;BME280_humidity;BME280_pressure;Samples;Min_cycle;Max_cycle;Signal;HPM_P1;HPM_P2
2021/04/15 02:45:36;;;;;;;0.10;0.10;;;15.90;36.80;;;;;;5646007;23;20377;31
2021/04/15 03:01:42;;;;;;;0.10;0.10;;;16.90;37.40;;;;;;5782602;23;20144;-96
2021/04/15 03:04:19;;;;;;;0.20;0.20;;;17.30;36.60;;;;;;4872289;29;20115;-96
2021/04/15 03:06:54;;;;;;;0.35;0.35;;;17.40;36.20;;;;;;4862881;29;20067;-96
2021/04/15 03:53:07;;;;;;;0.57;0.57;;;18.40;35.20;;;;;;4883047;29;20032;-96
2021/04/15 03:55:44;;;;;;;0.20;0.20;;;18.90;34.80;;;;;;4814759;29;20077;-96
2021/04/15 04:09:42;;;;;;;2.20;0.40;;;21.40;30.90;;;;;;4822879;29;20053;-96
2021/04/15 04:12:23;;;;;;;0.10;0.10;;;22.00;30.20;;;;;;4830645;29;20424;-92
2021/04/15 04:18:01;;;;;;;0.00;0.00;;;22.90;29.50;;;;;;5181969;23;20062;-92
2021/04/15 04:20:37;;;;;;;0.10;0.10;;;23.30;28.60;;;;;;4895835;29;20093;-95
2021/04/15 04:23:28;;;;;;;0.13;0.13;;;23.80;28.40;;;;;;5026196;23;20062;-95
2021/04/15 04:26:28;;;;;;;0.20;0.10;;;24.30;28.10;;;;;;4914176;23;20048;-93
2021/04/15 04:29:07;;;;;;;0.47;0.47;;;24.70;27.40;;;;;;4855376;29;20052;-92
2021/04/15 04:31:40;;;;;;;1.27;1.08;;;25.00;26.60;;;;;;4863627;29;20060;-93
2021/04/15 04:34:06;;;;;;;0.30;0.30;;;25.10;25.20;;;;;;4864058;29;20040;-94
2021/04/15 04:36:33;;;;;;;0.10;0.10;;;25.20;24.90;;;;;;4863488;29;20043;-95
2021/04/15 04:39:00;;;;;;;0.10;0.10;;;25.40;25.30;;;;;;4860548;29;20550;-93
2021/04/15 04:41:37;;;;;;;;;;;26.00;25.70;;;;;;4862069;29;20104;-93
2021/04/15 04:44:12;;;;;;;0.32;0.32;;;26.70;25.40;;;;;;4883840;29;20025;-94
2021/04/15 04:46:47;;;;;;;0.10;0.10;;;27.10;23.80;;;;;;4844034;29;20040;-91
2021/04/15 04:49:34;;;;;;;0.40;0.40;;;27.30;23.40;;;;;;4858998;29;20062;-96
2021/04/15 04:52:15;;;;;;;0.20;0.20;;;27.50;22.50;;;;;;4848800;29;20126;-93
2021/04/15 04:54:41;;;;;;;0.17;0.17;;;27.60;22.60;;;;;;4860920;29;20523;-94
2021/04/15 04:57:32;;;;;;;0.03;0.03;;;27.80;22.20;;;;;;4861071;29;20126;-95
2021/04/15 05:00:13;;;;;;;0.13;0.13;;;27.80;22.10;;;;;;4849007;29;20040;-94
2021/04/15 05:02:40;;;;;;;0.65;0.63;;;28.00;21.80;;;;;;4864678;29;20122;-96
2021/04/15 05:05:13;;;;;;;0.28;0.28;;;28.10;21.40;;;;;;4869301;29;20127;-94
2021/04/15 05:07:40;;;;;;;0.40;0.40;;;28.10;20.60;;;;;;4851236;29;20424;-96
2021/04/15 05:10:07;;;;;;;0.43;0.43;;;27.90;20.30;;;;;;4853518;29;20060;-96
2021/04/15 05:12:36;;;;;;;0.35;0.20;;;27.70;20.40;;;;;;4849482;29;20080;-95
2021/04/15 05:15:04;;;;;;;0.63;0.63;;;27.90;20.80;;;;;;4866215;29;20052;-95
2021/04/15 05:17:37;;;;;;;0.20;0.20;;;28.30;20.90;;;;;;4852568;29;20080;-96
2021/04/15 05:20:12;;;;;;;0.15;0.15;;;29.00;21.10;;;;;;4862176;29;20051;-95
2021/04/15 05:23:13;;;;;;;0.10;0.10;;;30.00;20.70;;;;;;4848494;29;20052;-95
2021/04/15 05:26:10;;;;;;;0.57;0.57;;;31.40;20.00;;;;;;4872945;29;20064;-93
2021/04/15 05:28:41;;;;;;;0.10;0.10;;;32.50;18.20;;;;;;4893154;29;20051;-94
2021/04/15 05:31:15;;;;;;;0.40;0.40;;;33.60;18.10;;;;;;5150638;23;20035;-96
2021/04/15 05:33:45;;;;;;;0.20;0.20;;;34.60;17.50;;;;;;4888754;29;20047;-96
2021/04/15 05:36:30;;;;;;;0.32;0.32;;;35.50;16.80;;;;;;4852240;29;20184;-93
2021/04/15 05:38:58;;;;;;;0.10;0.10;;;36.10;15.50;;;;;;4876840;29;20422;-96
2021/04/15 05:41:50;;;;;;;0.85;0.52;;;36.80;15.60;;;;;;4863225;29;20094;-95
2021/04/15 05:44:27;;;;;;;0.03;0.03;;;37.70;15.10;;;;;;4883481;29;20489;-95
2021/04/15 05:46:54;;;;;;;0.30;0.30;;;38.50;14.50;;;;;;4882057;29;20088;-96
2021/04/15 05:49:34;;;;;;;0.30;0.30;;;39.30;13.90;;;;;;4883033;29;20043;-95
2021/04/15 05:52:23;;;;;;;0.90;0.90;;;40.10;13.30;;;;;;4866115;29;20051;-93
2021/04/15 05:54:51;;;;;;;0.20;0.20;;;40.90;12.70;;;;;;4892163;29;20039;-92
2021/04/15 05:57:28;;;;;;;3.60;0.95;;;41.30;12.10;;;;;;4877576;29;20058;-93
2021/04/15 06:00:14;;;;;;;0.20;0.20;;;41.60;11.70;;;;;;4877278;29;20035;-92
2021/04/15 06:02:59;;;;;;;0.55;0.40;;;41.80;10.90;;;;;;4866057;29;20039;-95
2021/04/15 06:05:35;;;;;;;0.13;0.13;;;41.80;9.70;;;;;;4881422;29;20107;-93
2021/04/15 06:08:05;;;;;;;0.10;0.10;;;41.30;10.00;;;;;;4880989;29;20046;-94
2021/04/15 06:10:33;;;;;;;0.17;0.17;;;41.20;11.50;;;;;;4866245;29;20031;-93
2021/04/15 06:17:19;;;;;;;0.20;0.20;;;42.00;10.80;;;;;;4907325;29;20062;-93
2021/04/15 06:20:21;;;;;;;0.60;0.20;;;42.60;9.70;;;;;;4881009;29;20047;-94
2021/04/15 06:22:50;;;;;;;0.28;0.28;;;43.20;9.30;;;;;;4878250;29;20066;-93
2021/04/15 06:25:21;;;;;;;0.20;0.20;;;43.90;8.70;;;;;;4882493;29;20035;-93
2021/04/15 06:27:48;;;;;;;0.13;0.13;;;44.40;8.60;;;;;;4869042;29;20039;-93
2021/04/15 06:30:20;;;;;;;0.65;0.38;;;44.80;8.20;;;;;;4869896;29;20035;-93
2021/04/15 06:37:44;;;;;;;0.10;0.10;;;45.90;7.30;;;;;;4911805;29;20039;-95
2021/04/15 06:40:32;;;;;;;0.63;0.63;;;46.50;6.60;;;;;;4873605;29;20047;-93
2021/04/15 06:43:45;;;;;;;0.75;0.75;;;46.80;6.50;;;;;;4976564;23;20039;-95
2021/04/15 06:46:33;;;;;;;0.00;0.00;;;47.10;6.20;;;;;;4885214;29;20031;-93
2021/04/15 06:49:30;;;;;;;0.10;0.10;;;47.70;6.20;;;;;;4915352;29;20043;-94
2021/04/15 06:55:30;;;;;;;0.10;0.10;;;48.20;5.50;;;;;;5395347;23;20062;-94
2021/04/15 06:58:47;;;;;;;0.30;0.30;;;48.00;5.00;;;;;;4905031;29;20044;-96
2021/04/15 07:01:23;;;;;;;0.10;0.10;;;47.70;5.00;;;;;;4882810;29;20126;-93
2021/04/15 07:04:26;;;;;;;0.20;0.20;;;47.70;5.10;;;;;;4883569;29;20043;-93
2021/04/15 07:07:16;;;;;;;0.20;0.20;;;48.00;5.00;;;;;;4881618;29;20051;-95
2021/04/15 07:10:15;;;;;;;0.22;0.22;;;47.20;4.20;;;;;;4883439;29;20039;-93
2021/04/15 07:13:13;;;;;;;0.10;0.10;;;46.70;4.70;;;;;;4886943;29;20266;-94
2021/04/15 07:16:01;;;;;;;0.47;0.35;;;46.10;4.50;;;;;;4867268;29;20039;-93
2021/04/15 07:19:03;;;;;;;0.32;0.32;;;45.20;4.30;;;;;;4880153;29;20522;-94
2021/04/15 07:21:51;;;;;;;0.20;0.10;;;44.50;4.70;;;;;;4884036;29;20066;-94
2021/04/15 07:24:52;;;;;;;1.10;1.00;;;43.80;4.90;;;;;;4896205;29;20043;-92
2021/04/15 07:35:46;;;;;;;0.20;0.20;;;42.50;5.30;;;;;;4896254;29;20075;-94
2021/04/15 07:46:35;;;;;;;0.40;0.40;;;42.50;5.80;;;;;;4849203;29;20056;-96
2021/04/15 07:49:26;;;;;;;0.38;0.38;;;43.20;5.40;;;;;;5002920;23;20056;-96
2021/04/15 07:52:36;;;;;;;0.40;0.40;;;43.70;5.60;;;;;;4875504;29;20067;-96
2021/04/15 07:55:35;;;;;;;0.10;0.10;;;44.60;5.30;;;;;;4894666;29;20051;-95
2021/04/15 07:58:25;;;;;;;0.20;0.20;;;45.30;4.70;;;;;;4884937;29;20119;-95
2021/04/15 08:01:50;;;;;;;0.30;0.30;;;44.80;4.60;;;;;;4868604;29;20088;-96
2021/04/15 08:05:00;;;;;;;0.10;0.10;;;44.40;5.00;;;;;;4883524;29;20043;-95
2021/04/15 08:11:38;;;;;;;0.20;0.20;;;45.90;4.60;;;;;;4907373;29;20063;-94
2021/04/15 08:18:09;;;;;;;0.52;0.52;;;45.10;4.00;;;;;;5616962;23;20043;-96
2021/04/15 08:21:07;;;;;;;0.30;0.30;;;44.00;4.20;;;;;;4921744;23;20052;-96
2021/04/15 08:52:14;;;;;;;0.20;0.20;;;42.90;4.20;;;;;;4870110;29;20041;-95
2021/04/15 08:55:09;;;;;;;0.50;0.50;;;43.10;4.40;;;;;;4830211;29;20062;-95
2021/04/15 08:58:25;;;;;;;0.30;0.30;;;43.50;4.20;;;;;;4799695;29;20041;-93
2021/04/15 09:01:31;;;;;;;0.20;0.20;;;43.80;3.60;;;;;;4812626;29;20073;-94
2021/04/15 09:04:18;;;;;;;0.10;0.10;;;43.40;3.90;;;;;;4742728;30;20047;-96
2021/04/15 09:10:12;;;;;;;16.05;0.73;;;44.10;4.10;;;;;;4859854;29;20057;-94
2021/04/15 09:13:03;;;;;;;0.28;0.28;;;44.40;3.60;;;;;;4815613;29;20033;-95
2021/04/15 09:16:19;;;;;;;0.30;0.30;;;43.90;3.30;;;;;;4840747;29;20049;-93
2021/04/15 09:19:06;;;;;;;6.22;1.38;;;43.70;3.60;;;;;;4840882;29;20041;-94
2021/04/15 09:21:59;;;;;;;1.85;0.38;;;43.20;3.40;;;;;;4796303;29;20493;-93
2021/04/15 09:25:19;;;;;;;0.63;0.63;;;42.90;4.20;;;;;;4813315;29;20049;-96
2021/04/15 09:28:56;;;;;;;;;;;;;;;;;;;;;
2021/04/15 09:34:37;;;;;;;0.32;0.32;;;41.70;4.40;;;;;;4956636;23;20628;-95
2021/04/15 09:37:27;;;;;;;0.35;0.28;;;41.20;4.60;;;;;;4919866;29;20031;-94
2021/04/15 09:40:01;;;;;;;0.10;0.10;;;40.80;4.60;;;;;;4894171;29;20055;-96
2021/04/15 09:42:46;;;;;;;0.57;0.40;;;40.60;5.10;;;;;;4879234;29;20473;-96
2021/04/15 09:45:24;;;;;;;0.40;0.40;;;40.60;4.70;;;;;;4891369;29;20127;-93
2021/04/15 09:48:27;;;;;;;0.90;0.60;;;40.20;4.90;;;;;;4903158;29;20047;-96
2021/04/15 09:51:08;;;;;;;0.77;0.32;;;39.70;5.10;;;;;;4886162;29;20103;-95
2021/04/15 09:54:51;;;;;;;;;;;;;;;;;;;;;
2021/04/15 09:57:57;;;;;;;0.30;0.30;;;38.90;5.90;;;;;;4887955;29;20036;-95
2021/04/15 10:00:38;;;;;;;0.30;0.30;;;39.50;5.80;;;;;;4849292;29;20048;-94
2021/04/15 10:03:35;;;;;;;0.30;0.30;;;39.80;5.50;;;;;;4857374;29;20048;-93
2021/04/15 10:06:15;;;;;;;0.20;0.20;;;39.70;5.30;;;;;;4879940;29;20043;-93
2021/04/15 10:08:56;;;;;;;0.88;0.55;;;39.50;5.50;;;;;;4870105;29;20048;-96
2021/04/15 10:11:59;;;;;;;0.40;0.28;;;39.10;5.60;;;;;;4862805;29;20127;-90
2021/04/15 10:14:26;;;;;;;0.47;0.47;;;38.40;5.90;;;;;;4883755;29;20055;-96
2021/04/15 10:17:22;;;;;;;0.60;0.60;;;37.60;6.50;;;;;;4879530;29;20151;-96
2021/04/15 10:20:21;;;;;;;0.30;0.30;;;36.80;6.90;;;;;;4896879;29;20028;-96
2021/04/15 10:23:11;;;;;;;0.30;0.30;;;36.10;7.40;;;;;;5000787;23;20541;-95
2021/04/15 10:29:13;;;;;;;0.20;0.20;;;34.40;8.00;;;;;;5043061;23;20043;-93
2021/04/15 10:32:10;;;;;;;1.50;0.60;;;33.90;8.80;;;;;;4886743;29;20055;-96
2021/04/15 10:34:50;;;;;;;0.10;0.10;;;33.40;9.80;;;;;;4896899;29;20043;-96
2021/04/15 10:37:28;;;;;;;0.88;0.57;;;33.00;10.00;;;;;;4897519;29;20118;-92
2021/04/15 10:40:01;;;;;;;0.25;0.25;;;32.60;9.20;;;;;;4898679;29;20110;-96
2021/04/15 10:43:40;;;;;;;0.75;0.75;;;32.30;9.50;;;;;;4912249;29;20036;-95
2021/04/15 10:46:27;;;;;;;0.20;0.20;;;32.00;10.70;;;;;;4819865;29;20474;-95
2021/04/15 10:49:32;;;;;;;0.52;0.52;;;31.80;9.80;;;;;;4804958;29;20052;-92
2021/04/15 10:52:14;;;;;;;0.40;0.40;;;31.50;9.70;;;;;;4845245;29;20021;-95
2021/04/15 10:54:44;;;;;;;0.10;0.10;;;31.30;10.00;;;;;;4871784;29;20040;-96
2021/04/15 10:57:22;;;;;;;0.20;0.20;;;31.10;10.00;;;;;;4867408;29;20058;-96
2021/04/15 11:00:35;;;;;;;;;;;31.00;10.20;;;;;;4874368;29;20048;-95
2021/04/15 11:03:18;;;;;;;0.10;0.10;;;30.90;10.30;;;;;;4887677;29;19934;-94
2021/04/15 11:05:47;;;;;;;0.22;0.22;;;30.80;10.40;;;;;;4864324;29;20036;-94
2021/04/15 11:08:26;;;;;;;0.60;0.45;;;30.80;10.40;;;;;;4878523;29;20415;-94
2021/04/15 11:11:24;;;;;;;0.20;0.20;;;30.70;10.50;;;;;;4865097;29;20044;-95
2021/04/15 11:14:10;;;;;;;0.28;0.28;;;30.60;10.60;;;;;;4857717;29;20051;-94
2021/04/15 11:16:37;;;;;;;0.10;0.10;;;30.50;10.90;;;;;;4869674;29;20044;-93
2021/04/15 11:19:10;;;;;;;0.90;0.63;;;30.50;10.50;;;;;;4886590;29;20071;-93
2021/04/15 11:21:38;;;;;;;0.20;0.20;;;30.40;10.60;;;;;;4855176;29;20048;-93
2021/04/15 11:24:32;;;;;;;0.20;0.20;;;30.40;10.50;;;;;;4846560;29;20047;-95
2021/04/15 11:27:01;;;;;;;0.30;0.30;;;30.40;10.60;;;;;;4864707;29;20043;-94
2021/04/15 11:29:43;;;;;;;0.57;0.57;;;30.20;10.40;;;;;;4857845;29;20048;-95
2021/04/15 11:32:41;;;;;;;2.60;1.35;;;30.10;10.40;;;;;;4859925;29;20043;-95
2021/04/15 11:35:20;;;;;;;0.10;0.10;;;30.00;10.60;;;;;;4858558;29;20090;-94
2021/04/15 11:37:49;;;;;;;0.32;0.30;;;30.00;10.80;;;;;;4881082;29;20047;-95
2021/04/15 11:40:41;;;;;;;0.30;0.28;;;29.90;10.90;;;;;;4864557;29;20039;-96
2021/04/15 11:43:34;;;;;;;0.00;0.00;;;29.90;10.90;;;;;;4867861;29;20058;-94
2021/04/15 11:46:38;;;;;;;0.00;0.00;;;29.90;10.90;;;;;;4879539;29;20039;-94
2021/04/15 11:49:12;;;;;;;0.22;0.22;;;29.90;11.10;;;;;;4865209;29;20051;-95
2021/04/15 11:52:06;;;;;;;0.32;0.32;;;29.80;11.20;;;;;;4862698;29;20558;-94
2021/04/15 11:54:46;;;;;;;0.33;0.33;;;29.80;11.20;;;;;;4879569;29;20040;-96
2021/04/15 11:57:22;;;;;;;0.55;0.55;;;29.90;11.30;;;;;;5057702;23;20238;-94
2021/04/15 12:00:02;;;;;;;0.15;0.15;;;29.70;11.10;;;;;;4859480;29;20084;-94
2021/04/15 12:02:45;;;;;;;0.10;0.10;;;29.50;11.10;;;;;;4949332;23;20036;-96
2021/04/15 12:05:40;;;;;;;0.10;0.10;;;29.40;10.80;;;;;;4899581;29;20047;-95
2021/04/15 12:08:33;;;;;;;0.30;0.30;;;29.30;10.90;;;;;;4891110;29;20058;-95
2021/04/15 12:11:21;;;;;;;0.13;0.13;;;29.20;10.30;;;;;;4882181;29;20110;-94
2021/04/15 12:13:58;;;;;;;0.75;0.75;;;29.00;10.20;;;;;;4881052;29;20059;-96
2021/04/15 12:17:00;;;;;;;2.55;1.60;;;29.00;10.30;;;;;;4881497;29;20031;-96
2021/04/15 12:20:15;;;;;;;0.50;0.40;;;29.00;10.30;;;;;;4883152;29;20038;-94
2021/04/15 12:23:10;;;;;;;0.17;0.15;;;29.00;10.30;;;;;;4904413;29;20035;-95
2021/04/15 12:26:03;;;;;;;0.20;0.20;;;29.10;10.20;;;;;;4854844;29;20039;-96
2021/04/15 12:28:40;;;;;;;0.35;0.35;;;29.10;10.10;;;;;;4882530;29;20043;-93
2021/04/15 12:31:31;;;;;;;0.10;0.10;;;29.00;10.30;;;;;;4883983;29;20055;-94
2021/04/15 12:34:33;;;;;;;0.10;0.10;;;29.00;10.50;;;;;;4867075;29;20106;-95
2021/04/15 12:37:12;;;;;;;0.10;0.10;;;29.00;10.40;;;;;;4884429;29;20043;-93
2021/04/15 12:39:53;;;;;;;1.45;0.35;;;29.00;10.50;;;;;;4920131;29;20049;-93
2021/04/15 12:42:24;;;;;;;0.10;0.10;;;28.90;10.40;;;;;;4892513;29;20039;-96
2021/04/15 12:44:54;;;;;;;0.00;0.00;;;28.90;10.60;;;;;;4856920;29;20562;-95
2021/04/15 12:47:20;;;;;;;2.63;0.10;;;28.90;10.70;;;;;;4840658;29;20043;-92
2021/04/15 12:49:47;;;;;;;0.20;0.20;;;28.90;10.80;;;;;;4889841;29;20035;-94
2021/04/15 12:52:13;;;;;;;0.20;0.20;;;28.80;10.90;;;;;;4874176;29;20102;-94
2021/04/15 12:54:42;;;;;;;0.13;0.13;;;28.80;10.90;;;;;;4873145;29;20035;-95
2021/04/15 12:57:17;;;;;;;0.57;0.57;;;28.80;11.00;;;;;;4892207;29;20114;-95
2021/04/15 12:59:48;;;;;;;1.95;1.17;;;28.70;11.10;;;;;;4876570;29;20054;-95
2021/04/15 13:02:32;;;;;;;0.43;0.43;;;28.70;11.10;;;;;;4877759;29;20063;-94
2021/04/15 13:04:59;;;;;;;0.15;0.15;;;28.70;11.10;;;;;;4909248;23;20123;-93
2021/04/15 13:07:34;;;;;;;0.20;0.20;;;28.70;11.10;;;;;;4985881;23;20103;-95
2021/04/15 13:13:01;;;;;;;0.52;0.00;;;28.60;11.10;;;;;;5428819;23;20051;-94
2021/04/15 18:14:05;;;;;;;0.15;0.15;;;20.10;19.90;;;;;;4635310;27;20139;-96
2021/04/15 18:18:18;;;;;;;0.10;0.10;;;19.90;20.10;;;;;;4901031;29;20048;-96
2021/04/15 18:21:59;;;;;;;0.17;0.17;;;19.80;20.30;;;;;;4897957;29;20047;-96
2021/04/15 18:31:15;;;;;;;0.05;0.05;;;19.40;20.70;;;;;;4907314;29;20135;-96
2021/04/15 18:33:49;;;;;;;0.00;0.00;;;19.30;20.80;;;;;;4892989;29;20058;-95
2021/04/15 18:36:26;;;;;;;0.08;0.08;;;19.30;20.90;;;;;;4858490;29;20035;-96
2021/04/15 18:39:08;;;;;;;0.15;0.15;;;19.20;21.10;;;;;;4842191;29;20040;-95
2021/04/15 18:41:40;;;;;;;0.10;0.10;;;19.10;21.30;;;;;;4888332;29;20063;-94
2021/04/15 18:44:12;;;;;;;0.10;0.10;;;19.00;21.50;;;;;;4840762;29;20102;-95
2021/04/15 18:46:46;;;;;;;0.10;0.10;;;18.90;21.80;;;;;;4858621;29;20028;-96
2021/04/15 18:49:13;;;;;;;0.28;0.25;;;18.80;22.20;;;;;;4880959;29;20043;-94
2021/04/15 18:51:48;;;;;;;0.05;0.05;;;18.70;22.30;;;;;;4865161;29;20039;-95
2021/04/15 18:54:21;;;;;;;0.03;0.03;;;18.60;22.40;;;;;;4877462;29;20091;-95
2021/04/15 18:56:56;;;;;;;0.45;0.30;;;18.50;22.60;;;;;;4866652;29;20043;-95
2021/04/15 18:59:23;;;;;;;0.10;0.10;;;18.40;22.60;;;;;;4860901;29;20048;-96
2021/04/15 19:01:51;;;;;;;0.10;0.10;;;18.30;22.70;;;;;;4858366;29;20044;-94
2021/04/15 19:04:18;;;;;;;0.20;0.20;;;18.30;22.90;;;;;;4856994;29;20080;-96
2021/04/15 19:06:44;;;;;;;0.10;0.10;;;18.20;23.10;;;;;;4856666;29;20047;-96
2021/04/15 19:09:18;;;;;;;0.10;0.10;;;18.10;24.20;;;;;;4858591;29;20032;-96
2021/04/15 19:11:48;;;;;;;0.32;0.32;;;18.10;23.40;;;;;;4863593;29;20056;-95
2021/04/15 19:14:47;;;;;;;2.55;0.20;;;18.00;23.40;;;;;;5218514;23;20048;31
2021/04/15 19:20:22;;;;;;;0.10;0.10;;;17.90;23.80;;;;;;4945984;23;20058;-96
2021/04/15 19:25:35;;;;;;;0.35;0.35;;;17.60;24.10;;;;;;4988061;23;20046;-95
2021/04/15 19:28:06;;;;;;;0.20;0.20;;;17.60;24.20;;;;;;4881171;29;20039;-95
2021/04/15 19:30:34;;;;;;;0.10;0.10;;;17.50;24.20;;;;;;4872556;29;20165;-96
2021/04/15 19:33:01;;;;;;;0.10;0.10;;;17.50;24.20;;;;;;4885647;29;20045;-94
2021/04/15 19:35:30;;;;;;;0.20;0.20;;;17.50;24.20;;;;;;4869735;29;20107;-96
2021/04/15 19:37:58;;;;;;;0.20;0.20;;;17.40;24.20;;;;;;4887719;29;20035;-95
2021/04/15 19:40:28;;;;;;;0.10;0.10;;;17.40;24.30;;;;;;4887934;29;20043;-96
2021/04/15 19:42:57;;;;;;;0.10;0.10;;;17.40;24.40;;;;;;4874060;29;20039;-96
2021/04/15 19:45:24;;;;;;;0.10;0.10;;;17.30;24.50;;;;;;4893973;29;20111;-96
2021/04/15 19:47:51;;;;;;;0.10;0.10;;;17.30;24.50;;;;;;4884218;29;20046;-95
2021/04/15 19:50:32;;;;;;;;;;;17.30;24.50;;;;;;5007660;23;20051;-96
2021/04/15 19:52:59;;;;;;;0.17;0.17;;;17.30;24.70;;;;;;4826448;29;20437;-95
2021/04/15 19:55:26;;;;;;;0.30;0.30;;;17.20;24.60;;;;;;4841271;29;20069;-96
2021/04/15 19:57:54;;;;;;;;;;;17.20;24.60;;;;;;4809048;29;20068;-96
2021/04/15 20:00:37;;;;;;;0.30;0.30;;;17.20;24.70;;;;;;4820770;29;19938;-96
2021/04/15 20:03:05;;;;;;;0.10;0.10;;;17.10;24.50;;;;;;4824007;29;20048;-94
2021/04/15 20:05:33;;;;;;;0.30;0.30;;;17.10;24.40;;;;;;4814222;29;20079;-96
2021/04/15 20:08:00;;;;;;;0.20;0.20;;;17.00;24.60;;;;;;4814282;29;20048;-93
2021/04/15 20:10:35;;;;;;;;;;;16.90;24.90;;;;;;4806270;29;20041;-96
2021/04/15 20:13:10;;;;;;;0.20;0.20;;;16.90;25.10;;;;;;4819745;29;19935;-96
2021/04/15 20:15:42;;;;;;;0.20;0.20;;;16.80;25.10;;;;;;4818861;29;20067;-96
2021/04/15 20:18:10;;;;;;;0.22;0.22;;;16.80;25.00;;;;;;4815372;29;20044;-96
2021/04/15 20:20:37;;;;;;;0.17;0.17;;;16.80;25.10;;;;;;4812939;29;20041;-94
2021/04/15 20:23:05;;;;;;;0.20;0.20;;;16.70;25.20;;;;;;4813225;29;20037;-95
2021/04/15 20:25:32;;;;;;;0.15;0.15;;;16.70;25.30;;;;;;4830792;29;20049;-96
2021/04/15 20:28:04;;;;;;;0.65;0.20;;;16.70;25.50;;;;;;4817532;29;20119;-95
2021/04/15 20:30:45;;;;;;;0.15;0.15;;;16.60;25.60;;;;;;4825857;29;20055;-96
2021/04/15 20:33:20;;;;;;;0.20;0.20;;;16.50;25.60;;;;;;4849641;29;20040;-95
2021/04/15 20:35:48;;;;;;;0.43;0.43;;;16.50;25.80;;;;;;4831158;29;20120;-95
2021/04/15 20:38:20;;;;;;;0.35;0.35;;;16.50;25.80;;;;;;4814072;29;20033;-96
2021/04/15 20:40:53;;;;;;;0.32;0.32;;;16.40;25.80;;;;;;4824914;29;20056;-96
2021/04/15 20:43:24;;;;;;;0.30;0.30;;;16.40;25.70;;;;;;4811125;29;20036;-95
2021/04/15 20:45:56;;;;;;;0.20;0.20;;;16.40;26.80;;;;;;4809159;29;20112;-95
2021/04/15 20:48:26;;;;;;;0.22;0.22;;;16.40;25.80;;;;;;4838419;29;20040;-96
2021/04/15 20:51:22;;;;;;;0.20;0.20;;;16.40;26.00;;;;;;4832746;29;20044;-96
2021/04/15 20:53:54;;;;;;;0.20;0.20;;;16.40;25.80;;;;;;4834481;29;20055;-96
2021/04/15 20:56:21;;;;;;;0.10;0.10;;;16.50;25.80;;;;;;4815267;29;20052;-96
2021/04/15 20:58:47;;;;;;;0.43;0.43;;;16.50;25.70;;;;;;4832704;29;20038;-96
2021/04/15 21:01:15;;;;;;;0.40;0.40;;;16.60;25.60;;;;;;4815889;29;20049;-96
2021/04/15 21:03:50;;;;;;;0.20;0.20;;;16.60;25.50;;;;;;4816647;29;20037;-94
2021/04/15 21:06:23;;;;;;;0.25;0.25;;;16.60;25.50;;;;;;4833170;29;20037;-96
2021/04/15 21:08:55;;;;;;;0.45;0.40;;;16.60;25.60;;;;;;4820170;29;20052;-95
2021/04/15 21:11:24;;;;;;;2.85;0.68;;;16.60;25.60;;;;;;4816108;29;20041;-96
2021/04/15 21:13:51;;;;;;;0.20;0.20;;;16.60;25.70;;;;;;4829451;29;20053;-96
2021/04/15 21:16:21;;;;;;;2.13;0.40;;;16.60;25.80;;;;;;4824384;29;20034;-95
2021/04/15 21:18:48;;;;;;;0.30;0.30;;;16.60;25.80;;;;;;4808361;29;20052;-96
2021/04/15 21:21:14;;;;;;;;;;;16.60;25.80;;;;;;4825538;29;20045;-95
2021/04/15 21:23:41;;;;;;;0.20;0.20;;;16.60;25.80;;;;;;4832007;29;19936;-95
2021/04/15 21:26:08;;;;;;;;;;;16.70;25.00;;;;;;4818256;29;20044;-94
2021/04/15 21:28:34;;;;;;;0.10;0.10;;;16.70;25.70;;;;;;4824716;29;19931;-94
2021/04/15 21:31:02;;;;;;;0.20;0.20;;;16.60;25.50;;;;;;4809745;29;20061;-94
2021/04/15 21:33:29;;;;;;;0.40;0.40;;;16.70;25.50;;;;;;4811591;29;20041;-95
2021/04/15 21:35:56;;;;;;;0.20;0.20;;;16.70;25.50;;;;;;4828277;29;20094;-95
2021/04/15 21:38:25;;;;;;;0.20;0.20;;;16.70;26.50;;;;;;4811628;29;20048;-94
2021/04/15 21:40:55;;;;;;;0.30;0.30;;;16.70;25.50;;;;;;4825848;29;20144;-95
2021/04/15 21:43:22;;;;;;;0.20;0.20;;;16.70;25.50;;;;;;4809810;29;20045;-96
2021/04/15 21:45:49;;;;;;;0.20;0.20;;;16.70;25.40;;;;;;4812065;29;20077;-95
2021/04/15 21:48:17;;;;;;;;;;;16.70;25.40;;;;;;4813796;29;20037;-95
2021/04/15 21:50:47;;;;;;;0.20;0.20;;;16.80;25.60;;;;;;4834731;29;19940;-95
2021/04/15 21:53:15;;;;;;;0.20;0.20;;;16.80;25.40;;;;;;4838277;29;20052;-94
2021/04/15 21:55:45;;;;;;;0.20;0.20;;;16.70;25.40;;;;;;4841822;29;20052;-94
2021/04/15 21:58:25;;;;;;;0.28;0.28;;;16.70;25.50;;;;;;4840665;29;20037;-93
2021/04/15 22:00:53;;;;;;;0.10;0.10;;;16.70;25.70;;;;;;4840108;29;20112;-94
2021/04/15 22:03:20;;;;;;;0.10;0.10;;;16.60;25.70;;;;;;4837702;29;20067;-93
2021/04/15 22:06:07;;;;;;;0.68;0.68;;;16.60;25.80;;;;;;4854406;29;20059;-93
2021/04/15 22:08:46;;;;;;;0.20;0.20;;;16.60;25.80;;;;;;4958598;24;20048;-96
2021/04/15 22:11:35;;;;;;;0.20;0.20;;;16.50;25.90;;;;;;5271257;23;20050;-96
2021/04/15 22:14:07;;;;;;;0.30;0.30;;;16.50;25.90;;;;;;5182855;24;20047;-95
2021/04/15 22:16:38;;;;;;;0.10;0.10;;;16.40;26.00;;;;;;5028817;24;20044;-94
2021/04/15 22:19:10;;;;;;;0.60;0.60;;;16.40;26.10;;;;;;4902960;23;20319;-96
2021/04/15 22:21:45;;;;;;;0.20;0.20;;;16.30;26.20;;;;;;5237301;23;21306;-96
2021/04/15 22:24:46;;;;;;;0.20;0.20;;;16.30;26.30;;;;;;5166014;23;20108;-96
2021/04/15 22:33:34;;;;;;;0.20;0.20;;;16.00;26.70;;;;;;5095865;23;21541;-96
2021/04/15 22:36:20;;;;;;;0.20;0.20;;;15.90;26.60;;;;;;4834167;29;20164;-95
2021/04/15 22:38:48;;;;;;;0.20;0.20;;;15.80;26.70;;;;;;4847195;29;20021;-96
2021/04/15 22:41:29;;;;;;;0.20;0.20;;;15.70;26.90;;;;;;4833938;29;20033;-96
2021/04/15 22:44:06;;;;;;;0.30;0.30;;;15.70;27.10;;;;;;4929422;23;20051;-95
2021/04/15 22:46:39;;;;;;;0.20;0.20;;;15.60;27.20;;;;;;4858444;29;20059;-96
2021/04/15 22:49:10;;;;;;;0.30;0.30;;;15.60;27.20;;;;;;4814377;29;20044;-95
2021/04/15 22:51:42;;;;;;;0.22;0.22;;;15.60;27.30;;;;;;5051688;24;20047;-92
2021/04/15 22:54:09;;;;;;;0.30;0.30;;;15.50;27.40;;;;;;4889638;29;20046;-94
2021/04/15 22:56:37;;;;;;;;;;;15.50;27.40;;;;;;4890427;29;20063;-92
2021/04/15 22:59:07;;;;;;;0.30;0.30;;;15.50;27.50;;;;;;4887951;29;20021;-92
2021/04/15 23:01:34;;;;;;;0.20;0.20;;;15.50;27.30;;;;;;4874315;29;20110;-93
2021/04/15 23:04:02;;;;;;;0.28;0.28;;;15.50;27.30;;;;;;4874841;29;20043;-95
2021/04/15 23:06:31;;;;;;;0.30;0.30;;;15.60;27.40;;;;;;4860127;29;20058;-95
2021/04/15 23:08:57;;;;;;;;;;;15.50;27.30;;;;;;4869698;29;20051;-94
2021/04/15 23:11:25;;;;;;;0.25;0.25;;;15.60;27.40;;;;;;4871126;29;19938;-94
2021/04/15 23:13:54;;;;;;;0.30;0.30;;;15.60;27.20;;;;;;4870874;29;20039;-95
2021/04/15 23:16:22;;;;;;;0.20;0.20;;;15.60;27.30;;;;;;4868960;29;20062;-94
2021/04/15 23:18:49;;;;;;;1.08;1.08;;;15.50;27.30;;;;;;4883986;29;20121;-93
2021/04/15 23:21:15;;;;;;;0.32;0.32;;;15.50;27.40;;;;;;4859103;29;20043;-94
2021/04/15 23:23:44;;;;;;;0.38;0.38;;;15.40;27.50;;;;;;4864512;29;20616;-94
2021/04/15 23:26:10;;;;;;;0.30;0.30;;;15.40;27.60;;;;;;4871107;29;20043;-93
2021/04/15 23:28:40;;;;;;;0.25;0.25;;;15.40;27.50;;;;;;4867201;29;20426;-94
2021/04/15 23:31:08;;;;;;;0.30;0.30;;;15.30;27.70;;;;;;4868313;29;20035;-94
2021/04/15 23:33:34;;;;;;;0.30;0.30;;;15.30;27.70;;;;;;4869269;29;20039;-95
2021/04/15 23:36:05;;;;;;;0.30;0.30;;;15.30;27.80;;;;;;4871671;29;20126;-94
2021/04/15 23:38:35;;;;;;;0.30;0.30;;;15.30;27.80;;;;;;4857331;29;20039;-94
2021/04/15 23:41:04;;;;;;;0.40;0.40;;;15.20;27.60;;;;;;4869390;29;20035;-93
2021/04/15 23:43:33;;;;;;;0.22;0.22;;;15.20;27.70;;;;;;4869726;29;20058;-92
2021/04/15 23:45:59;;;;;;;0.40;0.40;;;15.10;27.60;;;;;;4869702;29;20035;-94
2021/04/15 23:48:27;;;;;;;0.30;0.30;;;15.10;27.70;;;;;;4870699;29;20044;-94
2021/04/15 23:51:00;;;;;;;0.30;0.30;;;15.00;27.80;;;;;;4894574;29;20115;-94
2021/04/15 23:53:27;;;;;;;0.30;0.30;;;15.00;27.80;;;;;;4865517;29;20047;-93
2021/04/15 23:55:54;;;;;;;0.30;0.30;;;15.00;28.00;;;;;;4865479;29;20043;-93
2021/04/15 23:58:21;;;;;;;0.50;0.50;;;14.90;28.00;;;;;;4861698;29;20039;-95
